Sidney, Michigan
Current Conditions -  °F | °C
As of 8:14 PM on Tuesday 21 Oct 2014 (Local Time) from KY70 Reporting Station
Clear Clear  
Wind Chill: 37°   Ceiling: Unl
Heat Index: 43°   Visibility: 10mi
Dew Point: 35°   Wind: 9mph
Humidity: 74%   Direction: 100°E
Pressure: 30.2"   Gusts: NA
Location:  43.25°N, 85.13°W
Report Text: KY70 220014Z AUTO 10008KT 10SM CLR 06/02 A3020 RMK AO2 T00600016
Loading
Personal Weather Stations






























Interactive Weather Map
Tropical Storm Tracking
New forecast layout! Learn more

10-Day Weather Forecast

Advertisements
Track Severe Weather on mobile